sensor_id;sensor_type;location;lat;lon;timestamp;temperature;humidity
8711;DHT22;4392;47.400;8.062;2023-03-14T00:00:14;13.10;99.90
8711;DHT22;4392;47.400;8.062;2023-03-14T00:02:41;13.10;99.90
8711;DHT22;4392;47.400;8.062;2023-03-14T00:05:10;13.10;99.90
8711;DHT22;4392;47.400;8.062;2023-03-14T00:07:37;13.00;99.90
8711;DHT22;4392;47.400;8.062;2023-03-14T00:10:10;12.90;99.90
8711;DHT22;4392;47.400;8.062;2023-03-14T00:12:36;12.90;99.90
8711;DHT22;4392;47.400;8.062;2023-03-14T00:15:07;13.00;99.90
8711;DHT22;4392;47.400;8.062;2023-03-14T00:17:34;13.00;99.90
8711;DHT22;4392;47.400;8.062;2023-03-14T00:20:05;12.90;99.90
8711;DHT22;4392;47.400;8.062;2023-03-14T00:22:41;12.90;99.90
8711;DHT22;4392;47.400;8.062;2023-03-14T00:25:08;12.90;99.90
8711;DHT22;4392;47.400;8.062;2023-03-14T00:27:34;12.90;99.90
8711;DHT22;4392;47.400;8.062;2023-03-14T00:30:04;12.80;99.90
8711;DHT22;4392;47.400;8.062;2023-03-14T00:32:30;12.70;99.90
8711;DHT22;4392;47.400;8.062;2023-03-14T00:35:06;12.70;99.90
8711;DHT22;4392;47.400;8.062;2023-03-14T00:37:34;12.70;99.90
8711;DHT22;4392;47.400;8.062;2023-03-14T00:40:03;12.70;99.90
8711;DHT22;4392;47.400;8.062;2023-03-14T00:42:36;12.70;99.90
8711;DHT22;4392;47.400;8.062;2023-03-14T00:45:02;12.70;99.90
8711;DHT22;4392;47.400;8.062;2023-03-14T00:47:33;12.70;99.90
8711;DHT22;4392;47.400;8.062;2023-03-14T00:49:59;12.70;99.90
8711;DHT22;4392;47.400;8.062;2023-03-14T00:52:24;12.70;99.90
8711;DHT22;4392;47.400;8.062;2023-03-14T00:54:51;12.70;99.90
8711;DHT22;4392;47.400;8.062;2023-03-14T00:57:19;12.70;99.90
8711;DHT22;4392;47.400;8.062;2023-03-14T00:59:45;12.70;99.90
8711;DHT22;4392;47.400;8.062;2023-03-14T01:02:10;12.60;99.90
8711;DHT22;4392;47.400;8.062;2023-03-14T01:04:36;12.60;99.90
8711;DHT22;4392;47.400;8.062;2023-03-14T01:07:09;12.60;99.90
8711;DHT22;4392;47.400;8.062;2023-03-14T01:09:35;12.50;99.90
8711;DHT22;4392;47.400;8.062;2023-03-14T01:12:06;12.50;99.90
8711;DHT22;4392;47.400;8.062;2023-03-14T01:14:32;12.50;99.90
8711;DHT22;4392;47.400;8.062;2023-03-14T01:16:58;12.50;99.90
8711;DHT22;4392;47.400;8.062;2023-03-14T01:19:29;12.50;99.90
8711;DHT22;4392;47.400;8.062;2023-03-14T01:21:55;12.40;99.90
8711;DHT22;4392;47.400;8.062;2023-03-14T01:24:21;12.40;99.90
8711;DHT22;4392;47.400;8.062;2023-03-14T01:26:46;12.40;99.90
8711;DHT22;4392;47.400;8.062;2023-03-14T01:29:30;12.40;99.90
8711;DHT22;4392;47.400;8.062;2023-03-14T01:31:59;12.40;99.90
8711;DHT22;4392;47.400;8.062;2023-03-14T01:34:24;12.40;99.90
8711;DHT22;4392;47.400;8.062;2023-03-14T01:36:50;12.40;99.90
8711;DHT22;4392;47.400;8.062;2023-03-14T01:39:16;12.40;99.90
8711;DHT22;4392;47.400;8.062;2023-03-14T01:42:13;12.40;99.90
8711;DHT22;4392;47.400;8.062;2023-03-14T01:44:57;12.30;99.90
8711;DHT22;4392;47.400;8.062;2023-03-14T01:47:28;12.30;99.90
8711;DHT22;4392;47.400;8.062;2023-03-14T01:50:06;12.10;99.90
8711;DHT22;4392;47.400;8.062;2023-03-14T01:52:47;12.20;99.90
8711;DHT22;4392;47.400;8.062;2023-03-14T01:55:23;12.20;99.90
8711;DHT22;4392;47.400;8.062;2023-03-14T01:57:59;12.20;99.90
8711;DHT22;4392;47.400;8.062;2023-03-14T02:00:34;12.20;99.90
8711;DHT22;4392;47.400;8.062;2023-03-14T02:06:25;12.10;99.90
8711;DHT22;4392;47.400;8.062;2023-03-14T02:08:54;12.10;99.90
8711;DHT22;4392;47.400;8.062;2023-03-14T02:11:21;12.10;99.90
8711;DHT22;4392;47.400;8.062;2023-03-14T02:13:47;12.10;99.90
8711;DHT22;4392;47.400;8.062;2023-03-14T02:16:13;12.10;99.90
8711;DHT22;4392;47.400;8.062;2023-03-14T02:18:42;12.10;99.90
8711;DHT22;4392;47.400;8.062;2023-03-14T02:24:27;12.10;99.90
8711;DHT22;4392;47.400;8.062;2023-03-14T02:29:33;11.90;99.90
8711;DHT22;4392;47.400;8.062;2023-03-14T02:32:00;11.90;99.90
8711;DHT22;4392;47.400;8.062;2023-03-14T02:34:33;11.80;99.90
8711;DHT22;4392;47.400;8.062;2023-03-14T02:37:00;11.90;99.90
8711;DHT22;4392;47.400;8.062;2023-03-14T02:39:56;11.90;99.90
8711;DHT22;4392;47.400;8.062;2023-03-14T02:42:24;11.90;99.90
8711;DHT22;4392;47.400;8.062;2023-03-14T02:47:39;11.90;99.90
8711;DHT22;4392;47.400;8.062;2023-03-14T02:50:25;11.80;99.90
8711;DHT22;4392;47.400;8.062;2023-03-14T02:52:56;11.80;99.90
8711;DHT22;4392;47.400;8.062;2023-03-14T02:55:23;11.80;99.90
8711;DHT22;4392;47.400;8.062;2023-03-14T02:57:52;11.80;99.90
8711;DHT22;4392;47.400;8.062;2023-03-14T03:00:24;11.80;99.90
8711;DHT22;4392;47.400;8.062;2023-03-14T03:02:50;11.80;99.90
8711;DHT22;4392;47.400;8.062;2023-03-14T03:05:16;11.70;99.90
8711;DHT22;4392;47.400;8.062;2023-03-14T03:07:47;11.70;99.90
8711;DHT22;4392;47.400;8.062;2023-03-14T03:10:12;11.70;99.90
8711;DHT22;4392;47.400;8.062;2023-03-14T03:12:38;11.70;99.90
8711;DHT22;4392;47.400;8.062;2023-03-14T03:15:04;11.70;99.90
8711;DHT22;4392;47.400;8.062;2023-03-14T03:17:30;11.60;99.90
8711;DHT22;4392;47.400;8.062;2023-03-14T03:20:00;11.70;99.90
8711;DHT22;4392;47.400;8.062;2023-03-14T03:22:26;11.60;99.90
8711;DHT22;4392;47.400;8.062;2023-03-14T03:24:51;11.60;99.90
8711;DHT22;4392;47.400;8.062;2023-03-14T03:27:17;11.70;99.90
8711;DHT22;4392;47.400;8.062;2023-03-14T03:29:43;11.70;99.90
8711;DHT22;4392;47.400;8.062;2023-03-14T03:34:38;11.60;99.90
8711;DHT22;4392;47.400;8.062;2023-03-14T03:37:04;11.60;99.90
8711;DHT22;4392;47.400;8.062;2023-03-14T03:39:30;11.60;99.90
8711;DHT22;4392;47.400;8.062;2023-03-14T03:41:55;11.70;99.90
8711;DHT22;4392;47.400;8.062;2023-03-14T03:44:25;11.60;99.90
8711;DHT22;4392;47.400;8.062;2023-03-14T03:46:50;11.50;99.90
8711;DHT22;4392;47.400;8.062;2023-03-14T03:49:22;11.40;99.90
8711;DHT22;4392;47.400;8.062;2023-03-14T03:51:48;11.40;99.90
8711;DHT22;4392;47.400;8.062;2023-03-14T03:54:16;11.50;99.90
8711;DHT22;4392;47.400;8.062;2023-03-14T03:56:42;11.50;99.90
8711;DHT22;4392;47.400;8.062;2023-03-14T03:59:10;11.30;99.90
8711;DHT22;4392;47.400;8.062;2023-03-14T04:01:39;11.30;99.90
8711;DHT22;4392;47.400;8.062;2023-03-14T04:04:05;11.40;99.90
8711;DHT22;4392;47.400;8.062;2023-03-14T04:06:33;11.40;99.90
8711;DHT22;4392;47.400;8.062;2023-03-14T04:08:59;11.40;99.90
8711;DHT22;4392;47.400;8.062;2023-03-14T04:11:25;11.40;99.90
8711;DHT22;4392;47.400;8.062;2023-03-14T04:13:56;11.40;99.90
8711;DHT22;4392;47.400;8.062;2023-03-14T04:16:24;11.10;99.90
8711;DHT22;4392;47.400;8.062;2023-03-14T04:18:53;11.20;99.90
8711;DHT22;4392;47.400;8.062;2023-03-14T04:21:19;11.30;99.90
8711;DHT22;4392;47.400;8.062;2023-03-14T04:23:45;11.40;99.90
8711;DHT22;4392;47.400;8.062;2023-03-14T04:26:10;11.40;99.90
8711;DHT22;4392;47.400;8.062;2023-03-14T04:31:58;11.30;99.90
8711;DHT22;4392;47.400;8.062;2023-03-14T04:34:26;11.30;99.90
8711;DHT22;4392;47.400;8.062;2023-03-14T04:36:54;11.30;99.90
8711;DHT22;4392;47.400;8.062;2023-03-14T04:39:20;11.30;99.90
8711;DHT22;4392;47.400;8.062;2023-03-14T04:41:48;11.40;99.90
8711;DHT22;4392;47.400;8.062;2023-03-14T04:44:13;11.40;99.90
8711;DHT22;4392;47.400;8.062;2023-03-14T04:46:42;11.40;99.90
8711;DHT22;4392;47.400;8.062;2023-03-14T04:49:08;11.40;99.90
8711;DHT22;4392;47.400;8.062;2023-03-14T04:51:36;11.40;99.90
8711;DHT22;4392;47.400;8.062;2023-03-14T04:54:02;11.40;99.90
8711;DHT22;4392;47.400;8.062;2023-03-14T04:56:30;11.40;99.90
8711;DHT22;4392;47.400;8.062;2023-03-14T04:58:56;11.40;99.90
8711;DHT22;4392;47.400;8.062;2023-03-14T05:01:24;11.40;99.90
8711;DHT22;4392;47.400;8.062;2023-03-14T05:03:50;11.30;99.90
8711;DHT22;4392;47.400;8.062;2023-03-14T05:06:16;11.30;99.90
8711;DHT22;4392;47.400;8.062;2023-03-14T05:08:47;11.30;99.90
8711;DHT22;4392;47.400;8.062;2023-03-14T05:11:15;11.40;99.90
8711;DHT22;4392;47.400;8.062;2023-03-14T05:13:41;11.40;99.90
8711;DHT22;4392;47.400;8.062;2023-03-14T05:16:11;11.30;99.90
8711;DHT22;4392;47.400;8.062;2023-03-14T05:18:37;11.30;99.90
8711;DHT22;4392;47.400;8.062;2023-03-14T05:21:03;11.40;99.90
8711;DHT22;4392;47.400;8.062;2023-03-14T05:23:30;11.30;99.90
8711;DHT22;4392;47.400;8.062;2023-03-14T05:26:01;11.40;99.90
8711;DHT22;4392;47.400;8.062;2023-03-14T05:28:27;11.30;99.90
8711;DHT22;4392;47.400;8.062;2023-03-14T05:30:52;11.40;99.90
8711;DHT22;4392;47.400;8.062;2023-03-14T05:33:18;11.20;99.90
8711;DHT22;4392;47.400;8.062;2023-03-14T05:35:47;11.30;99.90
8711;DHT22;4392;47.400;8.062;2023-03-14T05:38:12;11.30;99.90
8711;DHT22;4392;47.400;8.062;2023-03-14T05:40:38;11.20;99.90
8711;DHT22;4392;47.400;8.062;2023-03-14T05:43:04;11.20;99.90
8711;DHT22;4392;47.400;8.062;2023-03-14T05:45:38;11.20;99.90
8711;DHT22;4392;47.400;8.062;2023-03-14T05:48:04;11.20;99.90
8711;DHT22;4392;47.400;8.062;2023-03-14T05:50:30;11.20;99.90
8711;DHT22;4392;47.400;8.062;2023-03-14T05:52:55;11.20;99.90
8711;DHT22;4392;47.400;8.062;2023-03-14T05:55:21;11.00;99.90
8711;DHT22;4392;47.400;8.062;2023-03-14T05:57:50;11.00;99.90
8711;DHT22;4392;47.400;8.062;2023-03-14T06:00:18;11.00;99.90
8711;DHT22;4392;47.400;8.062;2023-03-14T06:02:44;11.10;99.90
8711;DHT22;4392;47.400;8.062;2023-03-14T06:05:10;11.20;99.90
8711;DHT22;4392;47.400;8.062;2023-03-14T06:07:39;11.40;99.90
8711;DHT22;4392;47.400;8.062;2023-03-14T06:10:05;11.40;99.90
8711;DHT22;4392;47.400;8.062;2023-03-14T06:12:33;11.50;99.90
8711;DHT22;4392;47.400;8.062;2023-03-14T06:15:06;11.60;99.90
8711;DHT22;4392;47.400;8.062;2023-03-14T06:17:32;11.70;99.90
8711;DHT22;4392;47.400;8.062;2023-03-14T06:19:57;11.70;99.90
8711;DHT22;4392;47.400;8.062;2023-03-14T06:22:23;11.70;99.90
8711;DHT22;4392;47.400;8.062;2023-03-14T06:24:51;11.80;99.90
8711;DHT22;4392;47.400;8.062;2023-03-14T06:27:16;11.90;99.90
8711;DHT22;4392;47.400;8.062;2023-03-14T06:29:42;12.10;99.90
8711;DHT22;4392;47.400;8.062;2023-03-14T06:32:08;12.50;99.90
8711;DHT22;4392;47.400;8.062;2023-03-14T06:34:36;12.80;99.90
8711;DHT22;4392;47.400;8.062;2023-03-14T06:37:06;12.70;99.90
8711;DHT22;4392;47.400;8.062;2023-03-14T06:39:31;12.20;99.90
8711;DHT22;4392;47.400;8.062;2023-03-14T06:41:57;12.00;99.90
8711;DHT22;4392;47.400;8.062;2023-03-14T06:44:23;11.90;99.90
8711;DHT22;4392;47.400;8.062;2023-03-14T06:46:54;11.80;99.90
8711;DHT22;4392;47.400;8.062;2023-03-14T06:49:19;11.70;99.90
8711;DHT22;4392;47.400;8.062;2023-03-14T06:51:45;11.50;99.90
8711;DHT22;4392;47.400;8.062;2023-03-14T06:54:11;11.50;99.90
8711;DHT22;4392;47.400;8.062;2023-03-14T06:56:37;11.50;99.90
8711;DHT22;4392;47.400;8.062;2023-03-14T06:59:06;11.50;99.90
8711;DHT22;4392;47.400;8.062;2023-03-14T07:01:32;11.50;99.90
8711;DHT22;4392;47.400;8.062;2023-03-14T07:03:58;11.50;99.90
8711;DHT22;4392;47.400;8.062;2023-03-14T07:06:28;11.50;99.90
8711;DHT22;4392;47.400;8.062;2023-03-14T07:08:57;11.40;99.90
8711;DHT22;4392;47.400;8.062;2023-03-14T07:11:23;11.50;99.90
8711;DHT22;4392;47.400;8.062;2023-03-14T07:13:49;11.40;99.90
8711;DHT22;4392;47.400;8.062;2023-03-14T07:16:14;11.50;99.90
8711;DHT22;4392;47.400;8.062;2023-03-14T07:18:42;11.50;99.90
8711;DHT22;4392;47.400;8.062;2023-03-14T07:21:08;11.50;99.90
8711;DHT22;4392;47.400;8.062;2023-03-14T07:23:35;11.60;99.90
8711;DHT22;4392;47.400;8.062;2023-03-14T07:26:01;11.60;99.90
8711;DHT22;4392;47.400;8.062;2023-03-14T07:28:27;11.50;99.90
8711;DHT22;4392;47.400;8.062;2023-03-14T07:30:53;11.60;99.90
8711;DHT22;4392;47.400;8.062;2023-03-14T07:33:19;11.60;99.90
8711;DHT22;4392;47.400;8.062;2023-03-14T07:35:47;11.60;99.90
8711;DHT22;4392;47.400;8.062;2023-03-14T07:38:19;11.50;99.60
8711;DHT22;4392;47.400;8.062;2023-03-14T07:40:45;11.40;99.40
8711;DHT22;4392;47.400;8.062;2023-03-14T07:43:10;11.40;99.90
8711;DHT22;4392;47.400;8.062;2023-03-14T07:45:38;11.40;99.90
8711;DHT22;4392;47.400;8.062;2023-03-14T07:48:04;11.50;99.90
8711;DHT22;4392;47.400;8.062;2023-03-14T07:50:30;11.30;99.90
8711;DHT22;4392;47.400;8.062;2023-03-14T07:52:55;11.40;99.90
8711;DHT22;4392;47.400;8.062;2023-03-14T07:55:21;11.50;99.90
8711;DHT22;4392;47.400;8.062;2023-03-14T07:57:47;11.50;99.90
8711;DHT22;4392;47.400;8.062;2023-03-14T08:00:13;11.30;99.90
8711;DHT22;4392;47.400;8.062;2023-03-14T08:02:49;11.30;99.90
8711;DHT22;4392;47.400;8.062;2023-03-14T08:05:15;11.40;99.90
8711;DHT22;4392;47.400;8.062;2023-03-14T08:07:41;11.40;99.90
8711;DHT22;4392;47.400;8.062;2023-03-14T08:10:08;11.30;99.90
8711;DHT22;4392;47.400;8.062;2023-03-14T08:12:33;11.30;99.90
8711;DHT22;4392;47.400;8.062;2023-03-14T08:14:59;11.30;99.90
8711;DHT22;4392;47.400;8.062;2023-03-14T08:17:26;11.30;99.90
8711;DHT22;4392;47.400;8.062;2023-03-14T08:19:52;11.40;99.90
8711;DHT22;4392;47.400;8.062;2023-03-14T08:22:21;11.20;99.90
8711;DHT22;4392;47.400;8.062;2023-03-14T08:24:46;11.30;99.90
8711;DHT22;4392;47.400;8.062;2023-03-14T08:27:12;11.30;99.90
8711;DHT22;4392;47.400;8.062;2023-03-14T08:29:39;11.40;99.90
8711;DHT22;4392;47.400;8.062;2023-03-14T08:32:16;11.30;99.90
8711;DHT22;4392;47.400;8.062;2023-03-14T08:34:42;11.20;99.90
8711;DHT22;4392;47.400;8.062;2023-03-14T08:37:08;11.20;99.90
8711;DHT22;4392;47.400;8.062;2023-03-14T08:39:33;11.10;99.90
8711;DHT22;4392;47.400;8.062;2023-03-14T08:41:59;11.10;99.90
8711;DHT22;4392;47.400;8.062;2023-03-14T08:44:25;11.20;99.90
8711;DHT22;4392;47.400;8.062;2023-03-14T08:46:50;11.20;99.90
8711;DHT22;4392;47.400;8.062;2023-03-14T08:49:16;11.10;99.90
8711;DHT22;4392;47.400;8.062;2023-03-14T08:51:44;11.20;99.90
8711;DHT22;4392;47.400;8.062;2023-03-14T08:54:10;11.20;99.90
8711;DHT22;4392;47.400;8.062;2023-03-14T08:56:39;11.10;99.90
8711;DHT22;4392;47.400;8.062;2023-03-14T08:59:05;11.00;99.90
8711;DHT22;4392;47.400;8.062;2023-03-14T09:01:36;11.10;99.90
8711;DHT22;4392;47.400;8.062;2023-03-14T09:04:02;11.00;99.90
8711;DHT22;4392;47.400;8.062;2023-03-14T09:06:35;11.00;99.90
8711;DHT22;4392;47.400;8.062;2023-03-14T09:09:08;11.10;99.90
8711;DHT22;4392;47.400;8.062;2023-03-14T09:11:34;11.10;99.90
8711;DHT22;4392;47.400;8.062;2023-03-14T09:14:02;11.10;99.90
8711;DHT22;4392;47.400;8.062;2023-03-14T09:16:28;11.00;99.90
8711;DHT22;4392;47.400;8.062;2023-03-14T09:18:54;10.90;99.90
8711;DHT22;4392;47.400;8.062;2023-03-14T09:21:23;11.00;99.90
8711;DHT22;4392;47.400;8.062;2023-03-14T09:23:50;11.00;99.90
8711;DHT22;4392;47.400;8.062;2023-03-14T09:26:16;11.10;99.90
8711;DHT22;4392;47.400;8.062;2023-03-14T09:28:42;11.00;99.90
8711;DHT22;4392;47.400;8.062;2023-03-14T09:31:11;10.90;99.90
8711;DHT22;4392;47.400;8.062;2023-03-14T09:33:43;10.80;99.90
8711;DHT22;4392;47.400;8.062;2023-03-14T09:36:10;10.70;99.90
8711;DHT22;4392;47.400;8.062;2023-03-14T09:38:36;10.70;99.90
8711;DHT22;4392;47.400;8.062;2023-03-14T09:44:13;10.70;99.90
8711;DHT22;4392;47.400;8.062;2023-03-14T09:46:45;10.70;99.90
8711;DHT22;4392;47.400;8.062;2023-03-14T09:49:34;10.70;99.90
8711;DHT22;4392;47.400;8.062;2023-03-14T09:52:24;10.40;99.90
8711;DHT22;4392;47.400;8.062;2023-03-14T09:55:21;10.60;99.90
8711;DHT22;4392;47.400;8.062;2023-03-14T09:57:49;10.70;99.90
8711;DHT22;4392;47.400;8.062;2023-03-14T10:00:28;10.70;99.90
8711;DHT22;4392;47.400;8.062;2023-03-14T10:03:07;10.70;99.90
8711;DHT22;4392;47.400;8.062;2023-03-14T10:05:43;10.70;99.90
8711;DHT22;4392;47.400;8.062;2023-03-14T10:08:13;10.70;99.90
8711;DHT22;4392;47.400;8.062;2023-03-14T10:10:42;10.70;99.90
8711;DHT22;4392;47.400;8.062;2023-03-14T10:13:20;10.60;99.90
8711;DHT22;4392;47.400;8.062;2023-03-14T10:16:03;10.70;99.90
8711;DHT22;4392;47.400;8.062;2023-03-14T10:18:31;10.60;99.90
8711;DHT22;4392;47.400;8.062;2023-03-14T10:21:25;10.70;99.90
8711;DHT22;4392;47.400;8.062;2023-03-14T10:24:26;10.60;99.90
8711;DHT22;4392;47.400;8.062;2023-03-14T10:27:04;10.60;99.90
8711;DHT22;4392;47.400;8.062;2023-03-14T10:29:34;10.60;99.90
8711;DHT22;4392;47.400;8.062;2023-03-14T10:32:21;11.10;99.90
8711;DHT22;4392;47.400;8.062;2023-03-14T10:38:01;10.40;99.90
8711;DHT22;4392;47.400;8.062;2023-03-14T10:40:39;10.40;99.90
8711;DHT22;4392;47.400;8.062;2023-03-14T10:43:13;10.40;99.90
8711;DHT22;4392;47.400;8.062;2023-03-14T10:45:42;10.40;99.90
8711;DHT22;4392;47.400;8.062;2023-03-14T10:50:55;10.20;99.90
8711;DHT22;4392;47.400;8.062;2023-03-14T10:53:24;10.30;99.90
8711;DHT22;4392;47.400;8.062;2023-03-14T10:55:50;10.40;99.90
8711;DHT22;4392;47.400;8.062;2023-03-14T10:58:31;10.40;99.90
8711;DHT22;4392;47.400;8.062;2023-03-14T11:03:35;10.00;99.90
8711;DHT22;4392;47.400;8.062;2023-03-14T11:09:18;10.00;99.90
8711;DHT22;4392;47.400;8.062;2023-03-14T11:11:47;9.90;99.90
8711;DHT22;4392;47.400;8.062;2023-03-14T11:14:39;10.10;99.90
8711;DHT22;4392;47.400;8.062;2023-03-14T11:19:57;10.20;99.90
8711;DHT22;4392;47.400;8.062;2023-03-14T11:22:44;10.30;99.90
8711;DHT22;4392;47.400;8.062;2023-03-14T11:30:53;10.30;99.90
8711;DHT22;4392;47.400;8.062;2023-03-14T11:36:33;9.90;99.90
8711;DHT22;4392;47.400;8.062;2023-03-14T11:39:00;9.90;99.90
8711;DHT22;4392;47.400;8.062;2023-03-14T11:41:36;10.00;99.90
8711;DHT22;4392;47.400;8.062;2023-03-14T11:44:24;10.00;99.90
8711;DHT22;4392;47.400;8.062;2023-03-14T11:49:45;9.90;99.90
8711;DHT22;4392;47.400;8.062;2023-03-14T11:52:50;9.90;99.90
8711;DHT22;4392;47.400;8.062;2023-03-14T11:55:26;10.10;99.90
8711;DHT22;4392;47.400;8.062;2023-03-14T11:58:01;9.90;99.90
8711;DHT22;4392;47.400;8.062;2023-03-14T12:00:30;10.20;99.90
8711;DHT22;4392;47.400;8.062;2023-03-14T12:06:23;12.20;99.90
8711;DHT22;4392;47.400;8.062;2023-03-14T12:08:59;12.90;99.90
8711;DHT22;4392;47.400;8.062;2023-03-14T12:13:54;12.50;99.90
8711;DHT22;4392;47.400;8.062;2023-03-14T12:18:48;13.10;99.90
8711;DHT22;4392;47.400;8.062;2023-03-14T12:21:14;13.50;99.50
8711;DHT22;4392;47.400;8.062;2023-03-14T12:23:55;13.50;94.00
8711;DHT22;4392;47.400;8.062;2023-03-14T12:26:27;13.30;97.40
8711;DHT22;4392;47.400;8.062;2023-03-14T12:42:38;10.70;96.00
8711;DHT22;4392;47.400;8.062;2023-03-14T12:45:29;10.60;97.00
8711;DHT22;4392;47.400;8.062;2023-03-14T12:48:22;10.30;99.20
8711;DHT22;4392;47.400;8.062;2023-03-14T12:51:00;10.20;99.90
8711;DHT22;4392;47.400;8.062;2023-03-14T12:56:26;10.60;99.90
8711;DHT22;4392;47.400;8.062;2023-03-14T13:01:33;10.70;99.90
8711;DHT22;4392;47.400;8.062;2023-03-14T13:04:09;10.80;99.90
8711;DHT22;4392;47.400;8.062;2023-03-14T13:06:57;10.80;99.90
8711;DHT22;4392;47.400;8.062;2023-03-14T13:11:56;10.90;99.90
8711;DHT22;4392;47.400;8.062;2023-03-14T13:14:30;10.90;99.90
8711;DHT22;4392;47.400;8.062;2023-03-14T13:17:00;10.60;99.00
8711;DHT22;4392;47.400;8.062;2023-03-14T13:19:31;10.00;99.90
8711;DHT22;4392;47.400;8.062;2023-03-14T13:22:15;10.00;99.90
8711;DHT22;4392;47.400;8.062;2023-03-14T13:24:43;10.10;99.90
8711;DHT22;4392;47.400;8.062;2023-03-14T13:27:17;10.10;98.80
8711;DHT22;4392;47.400;8.062;2023-03-14T13:29:48;10.30;98.50
8711;DHT22;4392;47.400;8.062;2023-03-14T13:32:27;10.40;99.40
8711;DHT22;4392;47.400;8.062;2023-03-14T13:35:26;10.60;99.40
8711;DHT22;4392;47.400;8.062;2023-03-14T13:38:01;10.80;98.20
8711;DHT22;4392;47.400;8.062;2023-03-14T13:40:32;10.90;95.60
8711;DHT22;4392;47.400;8.062;2023-03-14T13:43:19;10.90;94.50
8711;DHT22;4392;47.400;8.062;2023-03-14T13:45:50;10.90;94.60
8711;DHT22;4392;47.400;8.062;2023-03-14T13:48:17;11.00;94.00
8711;DHT22;4392;47.400;8.062;2023-03-14T13:50:58;11.00;94.30
8711;DHT22;4392;47.400;8.062;2023-03-14T13:53:31;10.90;93.20
8711;DHT22;4392;47.400;8.062;2023-03-14T13:56:03;11.00;92.60
8711;DHT22;4392;47.400;8.062;2023-03-14T13:58:32;10.90;91.30
8711;DHT22;4392;47.400;8.062;2023-03-14T14:01:14;10.80;92.50
8711;DHT22;4392;47.400;8.062;2023-03-14T14:03:47;10.80;91.40
8711;DHT22;4392;47.400;8.062;2023-03-14T14:09:45;11.10;91.00
8711;DHT22;4392;47.400;8.062;2023-03-14T14:12:19;11.20;90.30
8711;DHT22;4392;47.400;8.062;2023-03-14T14:14:52;11.10;87.50
8711;DHT22;4392;47.400;8.062;2023-03-14T14:17:26;11.10;89.50
8711;DHT22;4392;47.400;8.062;2023-03-14T14:19:56;11.20;87.50
8711;DHT22;4392;47.400;8.062;2023-03-14T14:22:23;11.00;82.60
8711;DHT22;4392;47.400;8.062;2023-03-14T14:24:49;11.20;93.60
8711;DHT22;4392;47.400;8.062;2023-03-14T14:27:37;11.50;87.90
8711;DHT22;4392;47.400;8.062;2023-03-14T14:32:48;11.30;81.70
8711;DHT22;4392;47.400;8.062;2023-03-14T14:35:32;11.60;84.60
8711;DHT22;4392;47.400;8.062;2023-03-14T14:38:11;12.40;89.30
8711;DHT22;4392;47.400;8.062;2023-03-14T14:40:53;12.50;79.00
8711;DHT22;4392;47.400;8.062;2023-03-14T14:43:25;12.10;74.60
8711;DHT22;4392;47.400;8.062;2023-03-14T14:45:54;11.90;78.30
8711;DHT22;4392;47.400;8.062;2023-03-14T14:48:23;12.00;79.20
8711;DHT22;4392;47.400;8.062;2023-03-14T14:51:02;12.00;77.90
8711;DHT22;4392;47.400;8.062;2023-03-14T14:53:44;12.00;79.00
8711;DHT22;4392;47.400;8.062;2023-03-14T14:56:24;11.60;74.30
8711;DHT22;4392;47.400;8.062;2023-03-14T14:58:58;11.50;77.50
8711;DHT22;4392;47.400;8.062;2023-03-14T15:01:34;11.40;76.90
8711;DHT22;4392;47.400;8.062;2023-03-14T15:04:11;11.50;79.10
8711;DHT22;4392;47.400;8.062;2023-03-14T15:06:44;11.40;77.10
8711;DHT22;4392;47.400;8.062;2023-03-14T15:09:19;11.50;78.10
8711;DHT22;4392;47.400;8.062;2023-03-14T15:11:46;12.10;91.20
8711;DHT22;4392;47.400;8.062;2023-03-14T15:14:12;13.20;90.50
8711;DHT22;4392;47.400;8.062;2023-03-14T15:16:41;13.60;87.70
8711;DHT22;4392;47.400;8.062;2023-03-14T15:19:20;13.10;77.70
8711;DHT22;4392;47.400;8.062;2023-03-14T15:21:48;12.30;80.30
8711;DHT22;4392;47.400;8.062;2023-03-14T15:24:14;12.00;83.60
8711;DHT22;4392;47.400;8.062;2023-03-14T15:26:42;11.90;85.30
8711;DHT22;4392;47.400;8.062;2023-03-14T15:29:10;11.80;86.30
8711;DHT22;4392;47.400;8.062;2023-03-14T15:31:38;11.60;86.80
8711;DHT22;4392;47.400;8.062;2023-03-14T15:34:10;11.50;86.10
8711;DHT22;4392;47.400;8.062;2023-03-14T15:36:37;11.50;87.90
8711;DHT22;4392;47.400;8.062;2023-03-14T15:39:09;11.50;86.50
8711;DHT22;4392;47.400;8.062;2023-03-14T15:41:35;11.30;87.10
8711;DHT22;4392;47.400;8.062;2023-03-14T15:44:04;11.20;87.30
8711;DHT22;4392;47.400;8.062;2023-03-14T15:46:30;11.20;88.90
8711;DHT22;4392;47.400;8.062;2023-03-14T15:48:57;11.20;89.70
8711;DHT22;4392;47.400;8.062;2023-03-14T15:51:23;11.10;90.00
8711;DHT22;4392;47.400;8.062;2023-03-14T15:53:52;11.10;90.20
8711;DHT22;4392;47.400;8.062;2023-03-14T15:56:18;11.10;90.80
8711;DHT22;4392;47.400;8.062;2023-03-14T15:58:47;11.00;90.90
8711;DHT22;4392;47.400;8.062;2023-03-14T16:01:14;11.00;91.20
8711;DHT22;4392;47.400;8.062;2023-03-14T16:03:41;11.10;91.10
8711;DHT22;4392;47.400;8.062;2023-03-14T16:06:12;11.10;91.00
8711;DHT22;4392;47.400;8.062;2023-03-14T16:08:37;11.00;91.30
8711;DHT22;4392;47.400;8.062;2023-03-14T16:11:03;11.00;91.40
8711;DHT22;4392;47.400;8.062;2023-03-14T16:13:30;11.00;91.90
8711;DHT22;4392;47.400;8.062;2023-03-14T16:16:01;11.00;92.10
8711;DHT22;4392;47.400;8.062;2023-03-14T16:18:29;10.80;92.20
8711;DHT22;4392;47.400;8.062;2023-03-14T16:21:06;10.80;92.70
8711;DHT22;4392;47.400;8.062;2023-03-14T16:23:36;10.90;93.00
8711;DHT22;4392;47.400;8.062;2023-03-14T16:26:16;10.90;92.80
8711;DHT22;4392;47.400;8.062;2023-03-14T16:28:43;10.80;93.00
8711;DHT22;4392;47.400;8.062;2023-03-14T16:31:21;10.80;93.50
8711;DHT22;4392;47.400;8.062;2023-03-14T16:33:50;10.80;93.70
8711;DHT22;4392;47.400;8.062;2023-03-14T16:36:16;10.80;93.40
8711;DHT22;4392;47.400;8.062;2023-03-14T16:38:43;10.80;93.30
8711;DHT22;4392;47.400;8.062;2023-03-14T16:41:17;10.70;93.60
8711;DHT22;4392;47.400;8.062;2023-03-14T16:43:44;10.80;94.20
8711;DHT22;4392;47.400;8.062;2023-03-14T16:46:16;10.90;93.50
8711;DHT22;4392;47.400;8.062;2023-03-14T16:48:42;11.10;92.90
8711;DHT22;4392;47.400;8.062;2023-03-14T16:51:13;11.30;93.40
8711;DHT22;4392;47.400;8.062;2023-03-14T16:53:43;11.40;92.50
8711;DHT22;4392;47.400;8.062;2023-03-14T16:56:15;11.50;91.90
8711;DHT22;4392;47.400;8.062;2023-03-14T16:58:41;11.50;92.70
8711;DHT22;4392;47.400;8.062;2023-03-14T17:01:12;11.60;91.60
8711;DHT22;4392;47.400;8.062;2023-03-14T17:03:49;11.20;90.70
8711;DHT22;4392;47.400;8.062;2023-03-14T17:06:19;11.10;91.20
8711;DHT22;4392;47.400;8.062;2023-03-14T17:08:53;11.00;90.70
8711;DHT22;4392;47.400;8.062;2023-03-14T17:11:27;11.00;91.10
8711;DHT22;4392;47.400;8.062;2023-03-14T17:13:53;11.00;91.30
8711;DHT22;4392;47.400;8.062;2023-03-14T17:16:21;10.90;90.80
8711;DHT22;4392;47.400;8.062;2023-03-14T17:18:47;10.90;91.30
8711;DHT22;4392;47.400;8.062;2023-03-14T17:21:12;10.80;91.50
8711;DHT22;4392;47.400;8.062;2023-03-14T17:23:38;10.80;91.90
8711;DHT22;4392;47.400;8.062;2023-03-14T17:26:04;10.70;91.90
8711;DHT22;4392;47.400;8.062;2023-03-14T17:28:30;10.70;92.10
8711;DHT22;4392;47.400;8.062;2023-03-14T17:31:07;10.70;91.40
8711;DHT22;4392;47.400;8.062;2023-03-14T17:33:33;10.70;91.70
8711;DHT22;4392;47.400;8.062;2023-03-14T17:35:59;10.70;92.00
8711;DHT22;4392;47.400;8.062;2023-03-14T17:38:25;10.60;92.10
8711;DHT22;4392;47.400;8.062;2023-03-14T17:40:56;10.60;91.70
8711;DHT22;4392;47.400;8.062;2023-03-14T17:43:22;10.50;92.20